Time,TemperatureF,DewpointF,PressureIn,WindDirection,WindDirectionDegrees,WindSpeedMPH,WindSpeedGustMPH,Humidity,HourlyPrecipIn,Conditions,Clouds,dailyrainin,SoftwareType,DateUTC
2013-02-05 00:00:00,46.8,44.0,30.08,ESE,115,0.0,1.0,90,0.00,,,0.00,VWS V14.01,2013-02-05 08:00:00,
2013-02-05 00:05:00,46.8,44.0,30.08,ESE,115,0.0,0.0,90,0.00,,,0.00,VWS V14.01,2013-02-05 08:05:00,
2013-02-05 00:10:00,46.7,43.9,30.08,ESE,115,0.0,0.0,90,0.00,,,0.00,VWS V14.01,2013-02-05 08:10:00,
2013-02-05 00:15:00,46.6,43.8,30.08,ESE,115,0.0,0.0,90,0.00,,,0.00,VWS V14.01,2013-02-05 08:15:00,
2013-02-05 00:20:00,46.5,44.0,30.08,ESE,115,0.0,1.0,91,0.00,,,0.00,VWS V14.01,2013-02-05 08:20:00,
2013-02-05 00:25:00,46.4,43.9,30.08,ESE,115,0.0,1.0,91,0.00,,,0.00,VWS V14.01,2013-02-05 08:25:00,
2013-02-05 00:29:00,46.4,43.9,30.08,ESE,115,0.0,1.0,91,0.00,,,0.00,VWS V14.01,2013-02-05 08:29:00,
2013-02-05 00:34:00,46.4,43.9,30.08,ESE,115,0.0,1.0,91,0.00,,,0.00,VWS V14.01,2013-02-05 08:34:00,
2013-02-05 00:39:00,46.4,43.9,30.07,ESE,115,2.0,5.0,91,0.00,,,0.00,VWS V14.01,2013-02-05 08:39:00,
2013-02-05 00:44:00,46.4,44.2,30.07,ESE,115,0.0,5.0,92,0.00,,,0.00,VWS V14.01,2013-02-05 08:44:00,
2013-02-05 00:49:00,46.5,44.3,30.08,ESE,115,1.0,5.0,92,0.00,,,0.00,VWS V14.01,2013-02-05 08:49:00,
2013-02-05 00:54:00,46.4,44.2,30.08,ESE,115,0.0,5.0,92,0.00,,,0.00,VWS V14.01,2013-02-05 08:54:00,
2013-02-05 00:59:00,46.3,44.1,30.08,ESE,115,0.0,5.0,92,0.00,,,0.00,VWS V14.01,2013-02-05 08:59:00,
2013-02-05 01:04:00,46.2,44.0,30.07,ESE,115,0.0,2.0,92,0.00,,,0.00,VWS V14.01,2013-02-05 09:04:00,
2013-02-05 01:09:00,46.1,43.6,30.07,ESE,115,0.0,2.0,91,0.00,,,0.00,VWS V14.01,2013-02-05 09:09:00,
2013-02-05 01:14:00,46.0,43.5,30.07,ESE,115,0.0,2.0,91,0.00,,,0.00,VWS V14.01,2013-02-05 09:14:00,
2013-02-05 01:19:00,45.8,43.3,30.07,ESE,115,0.0,2.0,91,0.00,,,0.00,VWS V14.01,2013-02-05 09:19:00,
2013-02-05 01:24:00,45.6,43.1,30.07,ESE,115,0.0,2.0,91,0.00,,,0.00,VWS V14.01,2013-02-05 09:24:00,
2013-02-05 01:29:00,45.6,43.1,30.08,ESE,115,0.0,2.0,91,0.00,,,0.00,VWS V14.01,2013-02-05 09:29:00,
2013-02-05 01:34:00,45.5,43.0,30.08,ESE,115,0.0,2.0,91,0.00,,,0.00,VWS V14.01,2013-02-05 09:34:00,
2013-02-05 01:39:00,45.4,42.9,30.08,ESE,115,0.0,2.0,91,0.00,,,0.00,VWS V14.01,2013-02-05 09:39:00,
2013-02-05 01:44:00,45.3,42.8,30.08,ESE,115,0.0,2.0,91,0.00,,,0.00,VWS V14.01,2013-02-05 09:44:00,
2013-02-05 01:49:00,45.2,42.7,30.08,ESE,115,0.0,3.0,91,0.00,,,0.00,VWS V14.01,2013-02-05 09:49:00,
2013-02-05 01:54:00,45.2,43.0,30.08,ESE,115,0.0,3.0,92,0.00,,,0.00,VWS V14.01,2013-02-05 09:54:00,
2013-02-05 01:59:00,45.2,43.0,30.08,ESE,115,0.0,3.0,92,0.00,,,0.00,VWS V14.01,2013-02-05 09:59:00,
2013-02-05 02:04:00,45.1,42.9,30.08,ESE,115,2.0,4.0,92,0.00,,,0.00,VWS V14.01,2013-02-05 10:04:00,
2013-02-05 02:09:00,45.0,42.8,30.08,ESE,115,0.0,4.0,92,0.00,,,0.00,VWS V14.01,2013-02-05 10:09:00,
2013-02-05 02:14:00,45.0,42.8,30.08,ESE,115,2.0,5.0,92,0.00,,,0.00,VWS V14.01,2013-02-05 10:14:00,
2013-02-05 02:19:00,45.0,42.8,30.08,ESE,115,0.0,5.0,92,0.00,,,0.00,VWS V14.01,2013-02-05 10:19:00,
2013-02-05 02:24:00,44.9,42.4,30.08,ESE,115,0.0,5.0,91,0.00,,,0.00,VWS V14.01,2013-02-05 10:24:00,
2013-02-05 02:29:00,44.8,42.3,30.08,ESE,115,3.0,5.0,91,0.00,,,0.00,VWS V14.01,2013-02-05 10:29:00,
2013-02-05 02:34:00,44.7,42.2,30.08,ESE,115,3.0,5.0,91,0.00,,,0.00,VWS V14.01,2013-02-05 10:34:00,
2013-02-05 02:39:00,44.6,42.1,30.07,ESE,115,2.0,5.0,91,0.00,,,0.00,VWS V14.01,2013-02-05 10:39:00,
2013-02-05 02:44:00,44.6,42.1,30.07,ESE,115,2.0,6.0,91,0.00,,,0.00,VWS V14.01,2013-02-05 10:44:00,
2013-02-05 02:49:00,44.6,42.1,30.07,ESE,115,2.0,6.0,91,0.00,,,0.00,VWS V14.01,2013-02-05 10:49:00,
2013-02-05 02:54:00,44.6,42.1,30.07,ESE,115,2.0,9.0,91,0.00,,,0.00,VWS V14.01,2013-02-05 10:54:00,
2013-02-05 02:59:00,44.6,42.1,30.07,ESE,115,3.0,9.0,91,0.00,,,0.00,VWS V14.01,2013-02-05 10:59:00,
2013-02-05 03:04:00,44.6,42.1,30.07,ESE,115,1.0,4.0,91,0.00,,,0.00,VWS V14.01,2013-02-05 11:04:00,
2013-02-05 03:09:00,44.5,42.0,30.07,ESE,115,1.0,6.0,91,0.00,,,0.00,VWS V14.01,2013-02-05 11:09:00,
2013-02-05 03:14:00,44.5,42.0,30.07,ESE,115,1.0,6.0,91,0.00,,,0.00,VWS V14.01,2013-02-05 11:14:00,
2013-02-05 03:19:00,44.5,42.0,30.07,ESE,115,0.0,6.0,91,0.00,,,0.00,VWS V14.01,2013-02-05 11:19:00,
2013-02-05 03:24:00,44.3,42.1,30.07,ESE,115,0.0,6.0,92,0.00,,,0.00,VWS V14.01,2013-02-05 11:24:00,
2013-02-05 03:29:00,44.2,41.7,30.07,ESE,115,0.0,6.0,91,0.00,,,0.00,VWS V14.01,2013-02-05 11:29:00,
2013-02-05 03:34:00,44.1,41.7,30.07,ESE,115,0.0,6.0,91,0.00,,,0.00,VWS V14.01,2013-02-05 11:34:00,
2013-02-05 03:39:00,44.0,41.5,30.07,ESE,115,0.0,6.0,91,0.00,,,0.00,VWS V14.01,2013-02-05 11:39:00,
2013-02-05 03:44:00,43.8,41.6,30.07,ESE,115,2.0,6.0,92,0.00,,,0.00,VWS V14.01,2013-02-05 11:44:00,
2013-02-05 03:49:00,43.7,41.5,30.06,ESE,115,0.0,6.0,92,0.00,,,0.00,VWS V14.01,2013-02-05 11:49:00,
2013-02-05 03:54:00,43.7,41.5,30.06,ESE,115,3.0,7.0,92,0.00,,,0.00,VWS V14.01,2013-02-05 11:54:00,
2013-02-05 03:59:00,43.7,41.5,30.06,ESE,115,3.0,7.0,92,0.00,,,0.00,VWS V14.01,2013-02-05 11:59:00,
2013-02-05 04:04:00,43.7,41.5,30.05,ESE,115,2.0,6.0,92,0.00,,,0.00,VWS V14.01,2013-02-05 12:04:00,
2013-02-05 04:09:00,43.7,41.5,30.05,ESE,115,2.0,6.0,92,0.00,,,0.00,VWS V14.01,2013-02-05 12:09:00,
2013-02-05 04:14:00,43.6,41.4,30.05,ESE,115,1.0,6.0,92,0.00,,,0.00,VWS V14.01,2013-02-05 12:14:00,
2013-02-05 04:19:00,43.6,41.4,30.05,ESE,115,3.0,6.0,92,0.00,,,0.00,VWS V14.01,2013-02-05 12:19:00,
2013-02-05 04:24:00,43.4,41.2,30.06,ESE,115,0.0,6.0,92,0.00,,,0.00,VWS V14.01,2013-02-05 12:24:00,
2013-02-05 04:29:00,43.3,41.1,30.06,ESE,115,0.0,6.0,92,0.00,,,0.00,VWS V14.01,2013-02-05 12:29:00,
2013-02-05 04:34:00,43.1,40.9,30.06,ESE,115,0.0,6.0,92,0.00,,,0.00,VWS V14.01,2013-02-05 12:34:00,
2013-02-05 04:39:00,43.0,40.8,30.06,ESE,115,0.0,6.0,92,0.00,,,0.00,VWS V14.01,2013-02-05 12:39:00,
2013-02-05 04:44:00,43.0,40.8,30.06,ESE,115,0.0,6.0,92,0.00,,,0.00,VWS V14.01,2013-02-05 12:44:00,
2013-02-05 04:49:00,42.9,40.7,30.06,ESE,115,2.0,6.0,92,0.00,,,0.00,VWS V14.01,2013-02-05 12:49:00,
2013-02-05 04:54:00,43.1,40.9,30.06,ESE,115,3.0,6.0,92,0.00,,,0.00,VWS V14.01,2013-02-05 12:54:00,
2013-02-05 04:59:00,43.1,40.9,30.06,ESE,115,1.0,7.0,92,0.00,,,0.00,VWS V14.01,2013-02-05 12:59:00,
2013-02-05 05:04:00,43.1,40.9,30.05,ESE,115,3.0,7.0,92,0.00,,,0.00,VWS V14.01,2013-02-05 13:04:00,
2013-02-05 05:09:00,43.1,41.2,30.06,ESE,115,1.0,7.0,93,0.00,,,0.00,VWS V14.01,2013-02-05 13:09:00,
2013-02-05 05:14:00,43.1,41.2,30.06,ESE,115,2.0,7.0,93,0.00,,,0.00,VWS V14.01,2013-02-05 13:14:00,
2013-02-05 05:19:00,43.1,41.2,30.06,ESE,115,0.0,7.0,93,0.00,,,0.00,VWS V14.01,2013-02-05 13:19:00,
2013-02-05 05:24:00,43.1,41.2,30.06,ESE,115,0.0,7.0,93,0.00,,,0.00,VWS V14.01,2013-02-05 13:24:00,
2013-02-05 05:29:00,43.1,41.2,30.06,ESE,115,6.0,7.0,93,0.00,,,0.00,VWS V14.01,2013-02-05 13:29:00,
2013-02-05 05:34:00,43.1,41.2,30.05,ESE,115,0.0,7.0,93,0.00,,,0.00,VWS V14.01,2013-02-05 13:34:00,
2013-02-05 05:39:00,43.0,41.1,30.06,ESE,115,0.0,7.0,93,0.00,,,0.00,VWS V14.01,2013-02-05 13:39:00,
2013-02-05 05:44:00,42.9,41.0,30.05,ESE,115,2.0,7.0,93,0.00,,,0.00,VWS V14.01,2013-02-05 13:44:00,
2013-02-05 05:49:00,42.9,41.0,30.06,ESE,115,0.0,7.0,93,0.00,,,0.00,VWS V14.01,2013-02-05 13:49:00,
2013-02-05 05:54:00,42.8,40.9,30.05,ESE,115,0.0,7.0,93,0.00,,,0.00,VWS V14.01,2013-02-05 13:54:00,
2013-02-05 05:59:00,42.8,40.9,30.05,ESE,115,0.0,7.0,93,0.00,,,0.00,VWS V14.01,2013-02-05 13:59:00,
2013-02-05 06:04:00,42.7,40.8,30.05,ESE,115,0.0,0.0,93,0.00,,,0.00,VWS V14.01,2013-02-05 14:04:00,
2013-02-05 06:09:00,42.7,40.8,30.06,ESE,115,2.0,7.0,93,0.00,,,0.00,VWS V14.01,2013-02-05 14:09:00,
2013-02-05 06:14:00,42.8,40.9,30.06,ESE,115,1.0,7.0,93,0.00,,,0.00,VWS V14.01,2013-02-05 14:14:00,
2013-02-05 06:19:00,42.8,40.9,30.06,ESE,115,0.0,7.0,93,0.00,,,0.00,VWS V14.01,2013-02-05 14:19:00,
2013-02-05 06:24:00,42.8,40.9,30.06,ESE,115,0.0,7.0,93,0.00,,,0.00,VWS V14.01,2013-02-05 14:24:00,
2013-02-05 06:28:00,42.7,40.8,30.06,ESE,115,0.0,7.0,93,0.00,,,0.00,VWS V14.01,2013-02-05 14:28:00,
2013-02-05 06:33:00,42.7,40.8,30.06,ESE,115,0.0,7.0,93,0.00,,,0.00,VWS V14.01,2013-02-05 14:33:00,
2013-02-05 06:38:00,42.7,40.8,30.06,ESE,115,0.0,7.0,93,0.00,,,0.00,VWS V14.01,2013-02-05 14:38:00,
2013-02-05 06:43:00,42.7,40.8,30.06,ESE,115,0.0,7.0,93,0.00,,,0.00,VWS V14.01,2013-02-05 14:43:00,
2013-02-05 06:48:00,42.7,40.8,30.07,ESE,115,0.0,7.0,93,0.00,,,0.00,VWS V14.01,2013-02-05 14:48:00,
2013-02-05 06:53:00,42.6,40.7,30.07,ESE,115,0.0,7.0,93,0.00,,,0.00,VWS V14.01,2013-02-05 14:53:00,
2013-02-05 06:58:00,42.6,40.7,30.07,ESE,115,0.0,7.0,93,0.00,,,0.00,VWS V14.01,2013-02-05 14:58:00,
2013-02-05 07:03:00,42.6,40.7,30.07,ESE,115,0.0,0.0,93,0.00,,,0.00,VWS V14.01,2013-02-05 15:03:00,
2013-02-05 07:08:00,42.6,40.7,30.07,ESE,115,0.0,0.0,93,0.00,,,0.00,VWS V14.01,2013-02-05 15:08:00,
2013-02-05 07:13:00,42.6,40.7,30.07,ESE,115,0.0,0.0,93,0.00,,,0.00,VWS V14.01,2013-02-05 15:13:00,
2013-02-05 07:18:00,42.6,40.7,30.07,ESE,115,0.0,0.0,93,0.00,,,0.00,VWS V14.01,2013-02-05 15:18:00,
2013-02-05 07:23:00,42.6,40.7,30.07,ESE,115,0.0,0.0,93,0.00,,,0.00,VWS V14.01,2013-02-05 15:23:00,
2013-02-05 07:28:00,42.6,40.7,30.08,ESE,115,0.0,0.0,93,0.00,,,0.00,VWS V14.01,2013-02-05 15:28:00,
2013-02-05 07:33:00,42.6,40.7,30.08,ESE,115,0.0,0.0,93,0.00,,,0.00,VWS V14.01,2013-02-05 15:33:00,
2013-02-05 07:38:00,42.6,40.7,30.08,ESE,115,0.0,0.0,93,0.00,,,0.00,VWS V14.01,2013-02-05 15:38:00,
2013-02-05 07:43:00,42.6,40.7,30.08,ESE,115,0.0,0.0,93,0.00,,,0.00,VWS V14.01,2013-02-05 15:43:00,
2013-02-05 07:48:00,42.6,40.7,30.08,ESE,115,0.0,0.0,93,0.00,,,0.00,VWS V14.01,2013-02-05 15:48:00,
2013-02-05 07:53:00,42.6,40.7,30.08,ESE,115,0.0,0.0,93,0.00,,,0.00,VWS V14.01,2013-02-05 15:53:00,
2013-02-05 07:58:00,43.4,41.5,30.08,ESE,115,0.0,0.0,93,0.00,,,0.00,VWS V14.01,2013-02-05 15:58:00,
2013-02-05 08:03:00,43.7,41.8,30.08,ESE,115,0.0,0.0,93,0.00,,,0.00,VWS V14.01,2013-02-05 16:03:00,
2013-02-05 08:08:00,44.0,42.1,30.08,ESE,115,0.0,0.0,93,0.00,,,0.00,VWS V14.01,2013-02-05 16:08:00,
2013-02-05 08:13:00,44.1,42.2,30.08,ESE,115,2.0,5.0,93,0.00,,,0.00,VWS V14.01,2013-02-05 16:13:00,
2013-02-05 08:18:00,44.2,42.3,30.08,ESE,115,4.0,6.0,93,0.00,,,0.00,VWS V14.01,2013-02-05 16:18:00,
2013-02-05 08:23:00,44.3,42.4,30.08,ESE,115,2.0,6.0,93,0.00,,,0.00,VWS V14.01,2013-02-05 16:23:00,
2013-02-05 08:28:00,44.5,42.3,30.09,ESE,115,0.0,6.0,92,0.00,,,0.00,VWS V14.01,2013-02-05 16:28:00,
2013-02-05 08:33:00,44.7,42.5,30.09,ESE,115,0.0,6.0,92,0.00,,,0.00,VWS V14.01,2013-02-05 16:33:00,
2013-02-05 08:38:00,45.0,42.8,30.09,ESE,115,3.0,6.0,92,0.00,,,0.00,VWS V14.01,2013-02-05 16:38:00,
2013-02-05 08:43:00,45.3,43.1,30.09,ESE,115,0.0,6.0,92,0.00,,,0.00,VWS V14.01,2013-02-05 16:43:00,
2013-02-05 08:48:00,45.6,43.4,30.09,ESE,115,0.0,6.0,92,0.00,,,0.00,VWS V14.01,2013-02-05 16:48:00,
2013-02-05 08:53:00,46.2,43.7,30.09,ESE,115,0.0,7.0,91,0.00,,,0.00,VWS V14.01,2013-02-05 16:53:00,
2013-02-05 08:58:00,46.6,44.1,30.10,ESE,117,8.0,9.0,91,0.00,,,0.00,VWS V14.01,2013-02-05 16:58:00,
2013-02-05 09:03:00,47.0,44.2,30.10,SE,132,3.0,10.0,90,0.00,,,0.00,VWS V14.01,2013-02-05 17:03:00,
2013-02-05 09:08:00,47.4,44.3,30.10,SE,132,0.0,10.0,89,0.00,,,0.00,VWS V14.01,2013-02-05 17:08:00,
2013-02-05 09:13:00,47.8,44.4,30.11,South,184,2.0,15.0,88,0.00,,,0.00,VWS V14.01,2013-02-05 17:13:00,
2013-02-05 09:18:00,48.2,44.8,30.11,South,184,3.0,15.0,88,0.00,,,0.00,VWS V14.01,2013-02-05 17:18:00,
2013-02-05 09:23:00,48.5,44.8,30.11,South,185,2.0,15.0,87,0.00,,,0.00,VWS V14.01,2013-02-05 17:23:00,
2013-02-05 09:28:00,48.7,44.7,30.11,South,186,2.0,15.0,86,0.00,,,0.00,VWS V14.01,2013-02-05 17:28:00,
2013-02-05 09:33:00,48.9,44.9,30.11,South,185,7.0,15.0,86,0.00,,,0.00,VWS V14.01,2013-02-05 17:33:00,
2013-02-05 09:38:00,49.2,44.9,30.11,South,185,4.0,15.0,85,0.00,,,0.00,VWS V14.01,2013-02-05 17:38:00,
2013-02-05 09:43:00,49.4,44.8,30.10,South,185,0.0,15.0,84,0.00,,,0.00,VWS V14.01,2013-02-05 17:43:00,
2013-02-05 09:48:00,49.6,45.0,30.10,South,183,9.0,15.0,84,0.00,,,0.00,VWS V14.01,2013-02-05 17:48:00,
2013-02-05 09:53:00,49.7,44.8,30.10,South,182,3.0,15.0,83,0.00,,,0.00,VWS V14.01,2013-02-05 17:53:00,
2013-02-05 09:58:00,49.9,45.0,30.10,South,182,3.0,15.0,83,0.00,,,0.00,VWS V14.01,2013-02-05 17:58:00,
2013-02-05 10:03:00,50.1,44.8,30.10,South,181,3.0,5.0,82,0.00,,,0.00,VWS V14.01,2013-02-05 18:03:00,
2013-02-05 10:08:00,50.3,45.0,30.11,South,180,5.0,7.0,82,0.00,,,0.00,VWS V14.01,2013-02-05 18:08:00,
2013-02-05 10:13:00,50.5,44.9,30.11,South,179,2.0,10.0,81,0.00,,,0.00,VWS V14.01,2013-02-05 18:13:00,
2013-02-05 10:18:00,50.6,45.0,30.11,South,173,12.0,12.0,81,0.00,,,0.00,VWS V14.01,2013-02-05 18:18:00,
2013-02-05 10:23:00,50.8,44.9,30.10,South,171,4.0,12.0,80,0.00,,,0.00,VWS V14.01,2013-02-05 18:23:00,
2013-02-05 10:28:00,50.8,44.5,30.11,SSE,164,5.0,12.0,79,0.00,,,0.00,VWS V14.01,2013-02-05 18:28:00,
2013-02-05 10:33:00,50.9,44.6,30.11,SSE,163,6.0,13.0,79,0.00,,,0.00,VWS V14.01,2013-02-05 18:33:00,
2013-02-05 10:38:00,50.9,44.6,30.10,SSE,161,4.0,13.0,79,0.00,,,0.00,VWS V14.01,2013-02-05 18:38:00,
2013-02-05 10:43:00,51.0,44.7,30.11,SSE,161,3.0,13.0,79,0.00,,,0.00,VWS V14.01,2013-02-05 18:43:00,
2013-02-05 10:48:00,51.2,44.9,30.11,SSE,161,4.0,13.0,79,0.00,,,0.00,VWS V14.01,2013-02-05 18:48:00,
2013-02-05 10:53:00,51.4,44.8,30.11,SSE,159,8.0,13.0,78,0.00,,,0.00,VWS V14.01,2013-02-05 18:53:00,
2013-02-05 10:58:00,51.5,44.9,30.11,SSE,163,3.0,13.0,78,0.00,,,0.00,VWS V14.01,2013-02-05 18:58:00,
2013-02-05 11:03:00,51.7,44.7,30.11,SSE,165,4.0,9.0,77,0.00,,,0.00,VWS V14.01,2013-02-05 19:03:00,
2013-02-05 11:08:00,52.0,45.0,30.10,SSE,165,6.0,12.0,77,0.00,,,0.00,VWS V14.01,2013-02-05 19:08:00,
2013-02-05 11:13:00,52.3,45.0,30.10,SSE,165,4.0,12.0,76,0.00,,,0.00,VWS V14.01,2013-02-05 19:13:00,
2013-02-05 11:18:00,52.6,45.3,30.10,SSE,165,0.0,12.0,76,0.00,,,0.00,VWS V14.01,2013-02-05 19:18:00,
2013-02-05 11:23:00,53.0,45.3,30.10,SSE,161,0.0,12.0,75,0.00,,,0.00,VWS V14.01,2013-02-05 19:23:00,
2013-02-05 11:28:00,53.1,45.4,30.10,SSE,161,6.0,12.0,75,0.00,,,0.00,VWS V14.01,2013-02-05 19:28:00,
2013-02-05 11:33:00,53.1,45.4,30.10,SSE,163,5.0,12.0,75,0.00,,,0.00,VWS V14.01,2013-02-05 19:33:00,
2013-02-05 11:38:00,53.1,45.4,30.09,SSE,161,3.0,12.0,75,0.00,,,0.00,VWS V14.01,2013-02-05 19:38:00,
2013-02-05 11:43:00,53.1,45.4,30.10,SSE,164,0.0,13.0,75,0.00,,,0.00,VWS V14.01,2013-02-05 19:43:00,
2013-02-05 11:48:00,53.2,45.5,30.09,SSE,167,5.0,13.0,75,0.00,,,0.00,VWS V14.01,2013-02-05 19:48:00,
2013-02-05 11:53:00,53.2,45.5,30.09,SSE,167,3.0,13.0,75,0.00,,,0.00,VWS V14.01,2013-02-05 19:53:00,
2013-02-05 11:58:00,53.0,45.3,30.09,South,171,1.0,13.0,75,0.00,,,0.00,VWS V14.01,2013-02-05 19:58:00,
2013-02-05 12:03:00,52.9,45.2,30.09,South,175,3.0,9.0,75,0.00,,,0.00,VWS V14.01,2013-02-05 20:03:00,
2013-02-05 12:08:00,52.7,45.4,30.08,South,188,1.0,13.0,76,0.00,,,0.00,VWS V14.01,2013-02-05 20:08:00,
2013-02-05 12:13:00,52.7,45.4,30.08,South,188,3.0,13.0,76,0.00,,,0.00,VWS V14.01,2013-02-05 20:13:00,
2013-02-05 12:18:00,52.7,45.4,30.08,South,189,3.0,13.0,76,0.00,,,0.00,VWS V14.01,2013-02-05 20:18:00,
2013-02-05 12:23:00,52.6,45.3,30.08,SSW,192,3.0,13.0,76,0.00,,,0.00,VWS V14.01,2013-02-05 20:23:00,
2013-02-05 12:28:00,52.6,45.3,30.07,SSW,192,0.0,13.0,76,0.00,,,0.00,VWS V14.01,2013-02-05 20:28:00,
2013-02-05 12:33:00,52.6,45.3,30.07,South,191,0.0,13.0,76,0.00,,,0.00,VWS V14.01,2013-02-05 20:33:00,
2013-02-05 12:38:00,52.6,45.3,30.07,South,190,4.0,13.0,76,0.00,,,0.00,VWS V14.01,2013-02-05 20:38:00,
2013-02-05 12:43:00,52.7,45.4,30.07,South,186,5.0,13.0,76,0.00,,,0.00,VWS V14.01,2013-02-05 20:43:00,
2013-02-05 12:48:00,52.8,45.1,30.08,South,186,7.0,13.0,75,0.00,,,0.00,VWS V14.01,2013-02-05 20:48:00,
2013-02-05 12:53:00,52.8,45.1,30.07,South,188,4.0,13.0,75,0.00,,,0.00,VWS V14.01,2013-02-05 20:53:00,
2013-02-05 12:58:00,53.1,45.0,30.07,South,188,3.0,13.0,74,0.00,,,0.00,VWS V14.01,2013-02-05 20:58:00,
2013-02-05 13:03:00,53.3,44.9,30.07,South,186,4.0,10.0,73,0.00,,,0.00,VWS V14.01,2013-02-05 21:03:00,
2013-02-05 13:08:00,53.5,45.1,30.06,South,178,5.0,10.0,73,0.00,,,0.00,VWS V14.01,2013-02-05 21:08:00,
2013-02-05 13:12:00,53.7,44.9,30.06,South,171,5.0,12.0,72,0.00,,,0.00,VWS V14.01,2013-02-05 21:12:00,
2013-02-05 13:17:00,53.8,45.0,30.06,SSE,166,4.0,12.0,72,0.00,,,0.00,VWS V14.01,2013-02-05 21:17:00,
2013-02-05 13:22:00,54.2,45.4,30.07,SSE,166,4.0,12.0,72,0.00,,,0.00,VWS V14.01,2013-02-05 21:22:00,
2013-02-05 13:27:00,54.6,44.7,30.06,SSE,167,2.0,12.0,69,0.00,,,0.00,VWS V14.01,2013-02-05 21:27:00,
2013-02-05 13:32:00,54.8,45.2,30.06,South,169,3.0,12.0,70,0.00,,,0.00,VWS V14.01,2013-02-05 21:32:00,
2013-02-05 13:37:00,54.9,45.7,30.06,SSE,167,3.0,13.0,71,0.00,,,0.00,VWS V14.01,2013-02-05 21:37:00,
2013-02-05 13:42:00,54.9,45.3,30.06,SSE,168,0.0,13.0,70,0.00,,,0.00,VWS V14.01,2013-02-05 21:42:00,
2013-02-05 13:47:00,54.8,45.6,30.05,South,169,6.0,13.0,71,0.00,,,0.00,VWS V14.01,2013-02-05 21:47:00,
2013-02-05 13:52:00,54.5,45.7,30.06,South,169,5.0,13.0,72,0.00,,,0.00,VWS V14.01,2013-02-05 21:52:00,
2013-02-05 13:57:00,54.4,45.9,30.06,South,169,4.0,13.0,73,0.00,,,0.00,VWS V14.01,2013-02-05 21:57:00,
2013-02-05 14:02:00,54.7,46.2,30.05,South,170,4.0,4.0,73,0.00,,,0.00,VWS V14.01,2013-02-05 22:02:00,
2013-02-05 14:07:00,54.7,45.9,30.05,South,170,1.0,6.0,72,0.00,,,0.00,VWS V14.01,2013-02-05 22:07:00,
2013-02-05 14:12:00,54.9,46.4,30.05,South,169,3.0,9.0,73,0.00,,,0.00,VWS V14.01,2013-02-05 22:12:00,
2013-02-05 14:17:00,55.1,46.6,30.05,South,169,2.0,10.0,73,0.00,,,0.00,VWS V14.01,2013-02-05 22:17:00,
2013-02-05 14:22:00,55.4,46.5,30.04,South,169,2.0,10.0,72,0.00,,,0.00,VWS V14.01,2013-02-05 22:22:00,
2013-02-05 14:27:00,55.6,46.7,30.05,South,169,8.0,10.0,72,0.00,,,0.00,VWS V14.01,2013-02-05 22:27:00,
2013-02-05 14:32:00,55.8,46.9,30.05,South,169,4.0,10.0,72,0.00,,,0.00,VWS V14.01,2013-02-05 22:32:00,
2013-02-05 14:37:00,55.9,46.7,30.05,South,169,0.0,10.0,71,0.00,,,0.00,VWS V14.01,2013-02-05 22:37:00,
2013-02-05 14:42:00,56.0,46.7,30.05,South,169,0.0,10.0,71,0.00,,,0.00,VWS V14.01,2013-02-05 22:42:00,
2013-02-05 14:47:00,56.1,46.8,30.05,South,169,3.0,10.0,71,0.00,,,0.00,VWS V14.01,2013-02-05 22:47:00,
2013-02-05 14:52:00,56.5,47.2,30.05,South,169,0.0,10.0,71,0.00,,,0.00,VWS V14.01,2013-02-05 22:52:00,
2013-02-05 14:57:00,57.1,47.4,30.05,South,169,0.0,10.0,70,0.00,,,0.00,VWS V14.01,2013-02-05 22:57:00,
2013-02-05 15:02:00,57.2,47.1,30.05,South,169,3.0,4.0,69,0.00,,,0.00,VWS V14.01,2013-02-05 23:02:00,
2013-02-05 15:07:00,57.2,47.1,30.05,South,169,0.0,6.0,69,0.00,,,0.00,VWS V14.01,2013-02-05 23:07:00,
2013-02-05 15:12:00,57.3,47.2,30.05,South,169,0.0,6.0,69,0.00,,,0.00,VWS V14.01,2013-02-05 23:12:00,
2013-02-05 15:17:00,57.7,47.6,30.05,South,169,4.0,6.0,69,0.00,,,0.00,VWS V14.01,2013-02-05 23:17:00,
2013-02-05 15:22:00,57.7,47.6,30.05,South,169,2.0,7.0,69,0.00,,,0.00,VWS V14.01,2013-02-05 23:22:00,
2013-02-05 15:27:00,57.5,47.4,30.05,South,170,3.0,9.0,69,0.00,,,0.00,VWS V14.01,2013-02-05 23:27:00,
2013-02-05 15:32:00,57.6,47.5,30.05,South,170,3.0,9.0,69,0.00,,,0.00,VWS V14.01,2013-02-05 23:32:00,
2013-02-05 15:37:00,57.4,47.3,30.05,South,170,0.0,9.0,69,0.00,,,0.00,VWS V14.01,2013-02-05 23:37:00,
2013-02-05 15:42:00,57.3,47.2,30.05,South,169,0.0,9.0,69,0.00,,,0.00,VWS V14.01,2013-02-05 23:42:00,
2013-02-05 15:47:00,57.6,47.5,30.05,South,170,0.0,9.0,69,0.00,,,0.00,VWS V14.01,2013-02-05 23:47:00,
2013-02-05 15:52:00,57.7,47.6,30.05,South,170,0.0,9.0,69,0.00,,,0.00,VWS V14.01,2013-02-05 23:52:00,
2013-02-05 15:57:00,57.8,47.3,30.05,South,170,0.0,9.0,68,0.00,,,0.00,VWS V14.01,2013-02-05 23:57:00,
2013-02-05 16:02:00,57.8,47.3,30.05,South,170,0.0,9.0,68,0.00,,,0.00,VWS V14.01,2013-02-06 00:02:00,
2013-02-05 16:07:00,57.9,47.4,30.05,South,170,0.0,1.0,68,0.00,,,0.00,VWS V14.01,2013-02-06 00:07:00,
2013-02-05 16:12:00,58.0,47.1,30.05,South,170,0.0,1.0,67,0.00,,,0.00,VWS V14.01,2013-02-06 00:12:00,
2013-02-05 16:17:00,57.9,47.4,30.05,South,170,0.0,1.0,68,0.00,,,0.00,VWS V14.01,2013-02-06 00:17:00,
2013-02-05 16:22:00,58.1,47.2,30.05,South,170,0.0,2.0,67,0.00,,,0.00,VWS V14.01,2013-02-06 00:22:00,
2013-02-05 16:27:00,57.9,47.0,30.05,South,170,0.0,5.0,67,0.00,,,0.00,VWS V14.01,2013-02-06 00:27:00,
2013-02-05 16:32:00,57.8,46.9,30.06,South,170,1.0,5.0,67,0.00,,,0.00,VWS V14.01,2013-02-06 00:32:00,
2013-02-05 16:37:00,57.7,46.8,30.06,South,170,0.0,5.0,67,0.00,,,0.00,VWS V14.01,2013-02-06 00:37:00,
2013-02-05 16:42:00,57.7,46.8,30.05,South,170,0.0,5.0,67,0.00,,,0.00,VWS V14.01,2013-02-06 00:42:00,
2013-02-05 16:47:00,57.7,46.8,30.06,South,170,0.0,5.0,67,0.00,,,0.00,VWS V14.01,2013-02-06 00:47:00,
2013-02-05 16:52:00,57.7,46.8,30.06,South,170,0.0,5.0,67,0.00,,,0.00,VWS V14.01,2013-02-06 00:52:00,
2013-02-05 16:57:00,57.7,46.8,30.06,South,170,0.0,5.0,67,0.00,,,0.00,VWS V14.01,2013-02-06 00:57:00,
2013-02-05 17:02:00,57.5,46.6,30.06,South,170,0.0,5.0,67,0.00,,,0.00,VWS V14.01,2013-02-06 01:02:00,
2013-02-05 17:07:00,57.5,47.0,30.06,South,170,0.0,0.0,68,0.00,,,0.00,VWS V14.01,2013-02-06 01:07:00,
2013-02-05 17:12:00,57.3,46.8,30.06,South,170,0.0,4.0,68,0.00,,,0.00,VWS V14.01,2013-02-06 01:12:00,
2013-02-05 17:17:00,57.1,46.7,30.06,South,170,0.0,4.0,68,0.00,,,0.00,VWS V14.01,2013-02-06 01:17:00,
2013-02-05 17:22:00,56.9,46.5,30.06,South,169,0.0,4.0,68,0.00,,,0.00,VWS V14.01,2013-02-06 01:22:00,
2013-02-05 17:27:00,56.7,46.3,30.06,South,169,0.0,4.0,68,0.00,,,0.00,VWS V14.01,2013-02-06 01:27:00,
2013-02-05 17:32:00,56.5,46.1,30.06,South,169,0.0,4.0,68,0.00,,,0.00,VWS V14.01,2013-02-06 01:32:00,
2013-02-05 17:37:00,56.4,46.0,30.06,South,169,0.0,4.0,68,0.00,,,0.00,VWS V14.01,2013-02-06 01:37:00,
2013-02-05 17:42:00,56.1,46.1,30.06,South,169,0.0,4.0,69,0.00,,,0.00,VWS V14.01,2013-02-06 01:42:00,
2013-02-05 17:47:00,56.0,46.0,30.06,South,169,0.0,4.0,69,0.00,,,0.00,VWS V14.01,2013-02-06 01:47:00,
2013-02-05 17:52:00,55.9,46.3,30.06,South,169,0.0,4.0,70,0.00,,,0.00,VWS V14.01,2013-02-06 01:52:00,
2013-02-05 17:57:00,55.6,46.0,30.06,South,169,0.0,4.0,70,0.00,,,0.00,VWS V14.01,2013-02-06 01:57:00,
2013-02-05 18:02:00,55.2,45.6,30.06,South,169,0.0,4.0,70,0.00,,,0.00,VWS V14.01,2013-02-06 02:02:00,
2013-02-05 18:07:00,54.7,45.5,30.06,South,169,0.0,0.0,71,0.00,,,0.00,VWS V14.01,2013-02-06 02:07:00,
2013-02-05 18:12:00,54.4,45.6,30.06,South,169,0.0,0.0,72,0.00,,,0.00,VWS V14.01,2013-02-06 02:12:00,
2013-02-05 18:17:00,54.0,45.5,30.06,South,169,0.0,0.0,73,0.00,,,0.00,VWS V14.01,2013-02-06 02:17:00,
2013-02-05 18:22:00,53.5,45.4,30.06,South,169,0.0,0.0,74,0.00,,,0.00,VWS V14.01,2013-02-06 02:22:00,
2013-02-05 18:27:00,53.1,45.0,30.07,South,169,0.0,0.0,74,0.00,,,0.00,VWS V14.01,2013-02-06 02:27:00,
2013-02-05 18:32:00,52.9,45.2,30.07,South,169,0.0,0.0,75,0.00,,,0.00,VWS V14.01,2013-02-06 02:32:00,
2013-02-05 18:37:00,52.6,44.9,30.07,South,169,0.0,0.0,75,0.00,,,0.00,VWS V14.01,2013-02-06 02:37:00,
2013-02-05 18:42:00,52.1,44.8,30.07,South,169,1.0,2.0,76,0.00,,,0.00,VWS V14.01,2013-02-06 02:42:00,
2013-02-05 18:47:00,51.6,44.6,30.07,South,169,0.0,3.0,77,0.00,,,0.00,VWS V14.01,2013-02-06 02:47:00,
2013-02-05 18:52:00,51.2,44.2,30.07,South,169,1.0,6.0,77,0.00,,,0.00,VWS V14.01,2013-02-06 02:52:00,
2013-02-05 18:57:00,50.9,44.6,30.07,South,169,3.0,6.0,79,0.00,,,0.00,VWS V14.01,2013-02-06 02:57:00,
2013-02-05 19:02:00,50.9,45.0,30.07,South,169,2.0,6.0,80,0.00,,,0.00,VWS V14.01,2013-02-06 03:02:00,
2013-02-05 19:07:00,50.9,45.0,30.07,South,169,2.0,4.0,80,0.00,,,0.00,VWS V14.01,2013-02-06 03:07:00,
2013-02-05 19:12:00,50.9,45.0,30.07,South,169,2.0,5.0,80,0.00,,,0.00,VWS V14.01,2013-02-06 03:12:00,
2013-02-05 19:17:00,50.8,44.9,30.07,South,169,0.0,6.0,80,0.00,,,0.00,VWS V14.01,2013-02-06 03:17:00,
2013-02-05 19:22:00,50.8,44.9,30.08,South,169,2.0,7.0,80,0.00,,,0.00,VWS V14.01,2013-02-06 03:22:00,
2013-02-05 19:27:00,50.8,44.9,30.08,South,169,2.0,7.0,80,0.00,,,0.00,VWS V14.01,2013-02-06 03:27:00,
2013-02-05 19:32:00,50.7,45.1,30.08,South,169,0.0,7.0,81,0.00,,,0.00,VWS V14.01,2013-02-06 03:32:00,
2013-02-05 19:37:00,50.6,45.0,30.08,South,169,0.0,7.0,81,0.00,,,0.00,VWS V14.01,2013-02-06 03:37:00,
2013-02-05 19:42:00,50.5,44.9,30.08,South,169,0.0,7.0,81,0.00,,,0.00,VWS V14.01,2013-02-06 03:42:00,
2013-02-05 19:47:00,50.4,44.8,30.08,South,169,2.0,7.0,81,0.00,,,0.00,VWS V14.01,2013-02-06 03:47:00,
2013-02-05 19:52:00,50.3,44.7,30.08,South,169,0.0,7.0,81,0.00,,,0.00,VWS V14.01,2013-02-06 03:52:00,
2013-02-05 19:57:00,50.2,44.6,30.08,South,169,0.0,7.0,81,0.00,,,0.00,VWS V14.01,2013-02-06 03:57:00,
2013-02-05 20:02:00,50.1,44.5,30.08,South,169,1.0,7.0,81,0.00,,,0.00,VWS V14.01,2013-02-06 04:02:00,
2013-02-05 20:07:00,50.1,44.5,30.08,South,169,0.0,7.0,81,0.00,,,0.00,VWS V14.01,2013-02-06 04:07:00,
2013-02-05 20:12:00,50.1,44.5,30.08,South,169,0.0,7.0,81,0.00,,,0.00,VWS V14.01,2013-02-06 04:12:00,
2013-02-05 20:17:00,50.1,44.5,30.09,South,169,2.0,7.0,81,0.00,,,0.00,VWS V14.01,2013-02-06 04:17:00,
2013-02-05 20:22:00,50.0,44.4,30.09,South,169,0.0,7.0,81,0.00,,,0.00,VWS V14.01,2013-02-06 04:22:00,
2013-02-05 20:27:00,49.9,44.3,30.09,South,169,0.0,7.0,81,0.00,,,0.00,VWS V14.01,2013-02-06 04:27:00,
2013-02-05 20:32:00,49.8,44.2,30.09,South,169,0.0,7.0,81,0.00,,,0.00,VWS V14.01,2013-02-06 04:32:00,
2013-02-05 20:37:00,49.7,44.4,30.09,South,169,0.0,7.0,82,0.00,,,0.00,VWS V14.01,2013-02-06 04:37:00,
2013-02-05 20:42:00,49.6,44.3,30.09,South,169,0.0,7.0,82,0.00,,,0.00,VWS V14.01,2013-02-06 04:42:00,
2013-02-05 20:47:00,49.5,44.2,30.10,South,169,2.0,7.0,82,0.00,,,0.00,VWS V14.01,2013-02-06 04:47:00,
2013-02-05 20:52:00,49.4,44.1,30.10,South,169,2.0,7.0,82,0.00,,,0.00,VWS V14.01,2013-02-06 04:52:00,
2013-02-05 20:57:00,49.3,44.4,30.10,South,169,0.0,7.0,83,0.00,,,0.00,VWS V14.01,2013-02-06 04:57:00,
2013-02-05 21:00:00,49.2,44.3,30.10,South,169,0.0,7.0,83,0.00,,,0.00,VWS V14.01,2013-02-06 05:00:00,
2013-02-05 21:05:00,49.1,44.2,30.10,South,169,0.0,4.0,83,0.00,,,0.00,VWS V14.01,2013-02-06 05:05:00,
2013-02-05 21:10:00,49.0,44.1,30.10,South,169,0.0,4.0,83,0.00,,,0.00,VWS V14.01,2013-02-06 05:10:00,
2013-02-05 21:15:00,48.9,44.0,30.10,South,169,3.0,4.0,83,0.00,,,0.00,VWS V14.01,2013-02-06 05:15:00,
2013-02-05 21:20:00,48.8,43.9,30.11,South,169,0.0,4.0,83,0.00,,,0.00,VWS V14.01,2013-02-06 05:20:00,
2013-02-05 21:25:00,48.6,44.0,30.10,South,169,0.0,4.0,84,0.00,,,0.00,VWS V14.01,2013-02-06 05:25:00,
2013-02-05 21:30:00,48.5,43.9,30.11,South,169,0.0,4.0,84,0.00,,,0.00,VWS V14.01,2013-02-06 05:30:00,
2013-02-05 21:35:00,48.2,43.6,30.11,South,169,0.0,4.0,84,0.00,,,0.00,VWS V14.01,2013-02-06 05:35:00,
2013-02-05 21:40:00,48.1,43.5,30.11,South,169,0.0,4.0,84,0.00,,,0.00,VWS V14.01,2013-02-06 05:40:00,
2013-02-05 21:45:00,47.9,43.3,30.11,South,169,0.0,4.0,84,0.00,,,0.00,VWS V14.01,2013-02-06 05:45:00,
2013-02-05 21:50:00,47.8,43.2,30.11,South,169,0.0,4.0,84,0.00,,,0.00,VWS V14.01,2013-02-06 05:50:00,
2013-02-05 21:55:00,47.6,43.3,30.11,South,169,0.0,4.0,85,0.00,,,0.00,VWS V14.01,2013-02-06 05:55:00,
2013-02-05 22:00:00,47.4,43.1,30.11,South,169,0.0,4.0,85,0.00,,,0.00,VWS V14.01,2013-02-06 06:00:00,
2013-02-05 22:05:00,47.3,43.0,30.11,South,169,0.0,0.0,85,0.00,,,0.00,VWS V14.01,2013-02-06 06:05:00,
2013-02-05 22:10:00,47.2,43.2,30.11,South,169,0.0,0.0,86,0.00,,,0.00,VWS V14.01,2013-02-06 06:10:00,
2013-02-05 22:15:00,47.1,43.1,30.11,South,169,0.0,0.0,86,0.00,,,0.00,VWS V14.01,2013-02-06 06:15:00,
2013-02-05 22:20:00,47.0,43.0,30.11,South,169,0.0,0.0,86,0.00,,,0.00,VWS V14.01,2013-02-06 06:20:00,
2013-02-05 22:25:00,46.9,42.9,30.11,South,169,0.0,0.0,86,0.00,,,0.00,VWS V14.01,2013-02-06 06:25:00,
2013-02-05 22:30:00,46.8,42.8,30.11,South,169,0.0,0.0,86,0.00,,,0.00,VWS V14.01,2013-02-06 06:30:00,
2013-02-05 22:35:00,46.6,42.6,30.11,South,169,0.0,0.0,86,0.00,,,0.00,VWS V14.01,2013-02-06 06:35:00,
2013-02-05 22:40:00,46.4,42.5,30.12,South,169,0.0,0.0,86,0.00,,,0.00,VWS V14.01,2013-02-06 06:40:00,
2013-02-05 22:45:00,46.3,42.3,30.12,South,169,0.0,0.0,86,0.00,,,0.00,VWS V14.01,2013-02-06 06:45:00,
2013-02-05 22:49:00,46.1,42.2,30.12,South,169,0.0,0.0,86,0.00,,,0.00,VWS V14.01,2013-02-06 06:49:00,
2013-02-05 22:54:00,45.8,41.9,30.12,South,169,0.0,0.0,86,0.00,,,0.00,VWS V14.01,2013-02-06 06:54:00,
2013-02-05 22:59:00,45.6,41.7,30.12,South,169,0.0,0.0,86,0.00,,,0.00,VWS V14.01,2013-02-06 06:59:00,
2013-02-05 23:04:00,45.4,41.5,30.13,South,169,0.0,0.0,86,0.00,,,0.00,VWS V14.01,2013-02-06 07:04:00,
2013-02-05 23:09:00,45.1,41.2,30.13,South,169,0.0,0.0,86,0.00,,,0.00,VWS V14.01,2013-02-06 07:09:00,
2013-02-05 23:14:00,44.9,41.3,30.13,South,169,0.0,0.0,87,0.00,,,0.00,VWS V14.01,2013-02-06 07:14:00,
2013-02-05 23:19:00,44.6,41.0,30.13,South,169,0.0,0.0,87,0.00,,,0.00,VWS V14.01,2013-02-06 07:19:00,
2013-02-05 23:24:00,44.4,40.8,30.13,South,169,0.0,0.0,87,0.00,,,0.00,VWS V14.01,2013-02-06 07:24:00,
2013-02-05 23:29:00,44.1,40.5,30.13,South,169,0.0,0.0,87,0.00,,,0.00,VWS V14.01,2013-02-06 07:29:00,
2013-02-05 23:34:00,44.0,40.7,30.13,South,169,0.0,0.0,88,0.00,,,0.00,VWS V14.01,2013-02-06 07:34:00,
2013-02-05 23:39:00,43.8,40.5,30.14,South,169,0.0,0.0,88,0.00,,,0.00,VWS V14.01,2013-02-06 07:39:00,
2013-02-05 23:44:00,43.6,40.3,30.14,South,169,0.0,0.0,88,0.00,,,0.00,VWS V14.01,2013-02-06 07:44:00,
2013-02-05 23:49:00,43.4,40.4,30.14,South,169,0.0,0.0,89,0.00,,,0.00,VWS V14.01,2013-02-06 07:49:00,
2013-02-05 23:54:00,43.3,40.3,30.14,South,169,0.0,0.0,89,0.00,,,0.00,VWS V14.01,2013-02-06 07:54:00,
2013-02-05 23:59:00,43.1,40.1,30.14,South,169,0.0,0.0,89,0.00,,,0.00,VWS V14.01,2013-02-06 07:59:00,